Time;durP1;ratioP1;P1;durP2;ratioP2;P2;SDS_P1;SDS_P2;PMS_P1;PMS_P2;Temp;Humidity;BMP_temperature;BMP_pressure;BME280_temperature;BME280_humidity;BME280_pressure;Samples;Min_cycle;Max_cycle;Signal;HPM_P1;HPM_P2
2021/10/08 00:00:30;;;;;;;20.63;12.73;;;6.10;99.10;;;;;;2074204;28;20191;-65
2021/10/08 00:01:31;;;;;;;16.13;11.30;;;6.20;98.90;;;;;;2073953;28;20185;-65
2021/10/08 00:02:32;;;;;;;21.48;12.18;;;6.20;98.80;;;;;;2074135;28;20714;-65
2021/10/08 00:03:33;;;;;;;19.37;12.20;;;6.20;98.70;;;;;;2074158;28;20243;-64
2021/10/08 00:04:35;;;;;;;19.23;11.07;;;6.20;98.80;;;;;;2074150;28;20205;-64
2021/10/08 00:05:35;;;;;;;20.40;13.07;;;6.20;98.90;;;;;;2074162;28;20794;-64
2021/10/08 00:06:36;;;;;;;20.53;12.57;;;6.20;98.90;;;;;;2073893;28;20213;-65
2021/10/08 00:07:37;;;;;;;21.27;12.70;;;6.20;98.90;;;;;;2074287;28;20185;-64
2021/10/08 00:08:39;;;;;;;24.77;12.97;;;6.20;98.90;;;;;;2073151;28;20224;-64
2021/10/08 00:09:40;;;;;;;22.15;12.45;;;6.30;99.00;;;;;;2073708;28;20182;-66
2021/10/08 00:10:40;;;;;;;23.77;12.73;;;6.20;99.00;;;;;;2074061;28;20667;-64
2021/10/08 00:11:42;;;;;;;22.70;13.00;;;6.30;99.00;;;;;;2073778;28;20182;-65
2021/10/08 00:12:43;;;;;;;21.10;12.00;;;6.30;99.10;;;;;;2073202;28;20577;-65
2021/10/08 00:13:44;;;;;;;19.98;11.32;;;6.30;99.00;;;;;;2073505;28;20802;-65
2021/10/08 00:14:45;;;;;;;22.73;13.18;;;6.30;99.40;;;;;;2073912;28;20201;-64
2021/10/08 00:15:45;;;;;;;21.87;12.40;;;6.20;99.50;;;;;;2073372;28;20188;-65
2021/10/08 00:16:46;;;;;;;21.83;12.97;;;6.20;99.50;;;;;;2073455;28;20265;-65
2021/10/08 00:17:47;;;;;;;19.47;12.50;;;6.20;99.50;;;;;;2074035;28;20227;-65
2021/10/08 00:18:48;;;;;;;20.97;13.63;;;6.20;99.40;;;;;;2073976;28;20178;-65
2021/10/08 00:19:49;;;;;;;19.58;12.65;;;6.20;99.60;;;;;;2074078;28;20231;-65
2021/10/08 00:20:50;;;;;;;22.37;14.07;;;6.20;99.90;;;;;;2074169;28;20185;-64
2021/10/08 00:21:51;;;;;;;21.90;14.00;;;6.20;99.90;;;;;;2081304;28;20621;-65
2021/10/08 00:22:51;;;;;;;20.52;12.25;;;6.30;99.90;;;;;;2081453;28;20268;-65
2021/10/08 00:23:52;;;;;;;19.73;12.13;;;6.30;99.90;;;;;;2074061;28;20185;-66
2021/10/08 00:24:53;;;;;;;23.80;13.37;;;6.30;99.80;;;;;;2073855;28;20198;-64
2021/10/08 00:25:54;;;;;;;20.87;12.80;;;6.30;99.70;;;;;;2073937;28;20178;-65
2021/10/08 00:26:54;;;;;;;22.53;13.93;;;6.30;99.70;;;;;;2073873;28;20560;-66
2021/10/08 00:27:55;;;;;;;23.33;14.67;;;6.30;99.70;;;;;;2073915;28;20177;-65
2021/10/08 00:28:56;;;;;;;23.27;14.17;;;6.40;99.60;;;;;;2073857;28;20188;-65
2021/10/08 00:29:56;;;;;;;28.13;13.50;;;6.40;99.60;;;;;;2074102;28;20182;-66
2021/10/08 00:30:57;;;;;;;21.57;13.53;;;6.40;99.50;;;;;;2073966;28;20269;-64
2021/10/08 00:31:58;;;;;;;21.50;13.43;;;6.50;99.90;;;;;;2073923;28;20180;-65
2021/10/08 00:32:58;;;;;;;25.90;13.47;;;6.50;99.30;;;;;;2073928;28;20343;-65
2021/10/08 00:33:59;;;;;;;21.10;14.13;;;6.50;99.30;;;;;;2073851;28;20178;-65
2021/10/08 00:35:00;;;;;;;23.43;14.03;;;6.50;99.50;;;;;;2073774;28;20194;-65
2021/10/08 00:36:01;;;;;;;21.70;13.60;;;6.50;99.50;;;;;;2074024;28;20201;-65
2021/10/08 00:37:01;;;;;;;26.67;13.83;;;6.50;99.20;;;;;;2073848;28;20189;-64
2021/10/08 00:38:07;;;;;;;24.70;15.03;;;6.60;99.30;;;;;;2073246;28;20633;-67
2021/10/08 00:39:08;;;;;;;23.52;14.45;;;6.60;99.50;;;;;;2073303;28;20297;-64
2021/10/08 00:40:09;;;;;;;24.57;15.30;;;6.60;99.70;;;;;;2073882;28;20240;-66
2021/10/08 00:41:11;;;;;;;22.88;14.63;;;6.70;99.80;;;;;;2073567;28;20188;-64
2021/10/08 00:42:11;;;;;;;23.88;15.68;;;6.70;99.90;;;;;;2073855;28;20585;-64
2021/10/08 00:43:16;;;;;;;26.37;15.17;;;6.80;99.90;;;;;;2073036;28;20181;-64
2021/10/08 00:44:17;;;;;;;21.63;13.75;;;6.80;99.90;;;;;;2073165;28;20645;-65
2021/10/08 00:45:18;;;;;;;25.57;15.43;;;6.90;99.90;;;;;;2073797;28;20185;-64
2021/10/08 00:46:19;;;;;;;22.23;14.83;;;6.80;99.90;;;;;;2073720;28;20198;-65
2021/10/08 00:47:20;;;;;;;26.42;15.18;;;6.80;99.90;;;;;;2073816;28;20181;-65
2021/10/08 00:48:20;;;;;;;24.93;14.73;;;6.90;99.90;;;;;;2073730;28;20572;-66
2021/10/08 00:49:21;;;;;;;21.50;14.47;;;7.00;99.90;;;;;;2073826;28;20178;-66
2021/10/08 00:50:22;;;;;;;24.37;14.47;;;7.00;99.90;;;;;;2073442;28;20174;-65
2021/10/08 00:51:25;;;;;;;22.40;13.13;;;7.00;99.90;;;;;;2073771;28;20204;-65
2021/10/08 00:52:25;;;;;;;22.42;14.27;;;7.10;99.90;;;;;;2073789;28;20181;-65
2021/10/08 00:53:26;;;;;;;21.57;13.67;;;7.10;99.90;;;;;;2073877;28;20595;-64
2021/10/08 00:54:27;;;;;;;24.70;14.87;;;7.10;99.70;;;;;;2073713;28;20285;-66
2021/10/08 00:55:27;;;;;;;28.20;14.80;;;7.10;99.90;;;;;;2073684;28;20189;-65
2021/10/08 00:56:30;;;;;;;22.17;14.87;;;7.10;99.90;;;;;;2073171;28;20552;-66
2021/10/08 00:57:30;;;;;;;25.83;15.10;;;7.20;99.80;;;;;;2073050;28;20194;-66
2021/10/08 00:58:31;;;;;;;24.83;14.63;;;7.20;99.70;;;;;;2073772;28;20182;-65
2021/10/08 00:59:34;;;;;;;25.30;14.83;;;7.30;99.50;;;;;;2073080;28;20682;-64
2021/10/08 01:00:40;;;;;;;20.38;14.32;;;7.40;99.40;;;;;;2072965;28;20190;-65
2021/10/08 01:01:41;;;;;;;20.15;12.73;;;7.40;99.30;;;;;;2072869;28;20161;-65
2021/10/08 01:02:43;;;;;;;21.50;14.13;;;7.50;99.20;;;;;;2073044;28;20637;-65
2021/10/08 01:03:44;;;;;;;21.20;13.95;;;7.60;99.10;;;;;;2073690;28;20231;-65
2021/10/08 01:04:48;;;;;;;22.88;14.27;;;7.60;98.70;;;;;;2073703;28;20203;-65
2021/10/08 01:05:49;;;;;;;24.33;14.32;;;7.60;98.80;;;;;;2073009;28;20221;-65
2021/10/08 01:06:50;;;;;;;19.90;13.85;;;7.70;98.70;;;;;;2073129;28;20178;-64
2021/10/08 01:07:51;;;;;;;23.63;14.03;;;7.70;98.70;;;;;;2073837;28;20241;-64
2021/10/08 01:08:52;;;;;;;19.93;13.27;;;7.70;98.20;;;;;;2073811;28;20572;-65
2021/10/08 01:09:52;;;;;;;21.17;14.13;;;7.70;98.30;;;;;;2073755;28;20180;-65
2021/10/08 01:10:53;;;;;;;20.47;13.93;;;7.70;98.50;;;;;;2073736;28;20176;-65
2021/10/08 01:11:54;;;;;;;23.47;13.30;;;7.70;98.60;;;;;;2074740;28;20182;-66
2021/10/08 01:12:55;;;;;;;19.37;12.20;;;7.80;98.10;;;;;;2081615;28;20178;-64
2021/10/08 01:13:56;;;;;;;20.83;14.30;;;7.70;98.20;;;;;;2081922;28;20268;-65
2021/10/08 01:14:56;;;;;;;21.48;13.63;;;7.60;98.40;;;;;;2081726;28;20194;-64
2021/10/08 01:15:57;;;;;;;18.13;12.80;;;7.70;98.60;;;;;;2081842;28;20528;-66
2021/10/08 01:16:58;;;;;;;18.57;12.77;;;7.70;98.60;;;;;;2081707;28;20181;-65
2021/10/08 01:17:59;;;;;;;20.30;13.07;;;7.80;98.50;;;;;;2081869;28;20536;-64
2021/10/08 01:18:59;;;;;;;19.00;13.57;;;7.80;98.20;;;;;;2081789;28;20173;-66
2021/10/08 01:20:11;;;;;;;21.53;13.70;;;7.70;98.10;;;;;;2081435;28;20176;-65
2021/10/08 01:21:12;;;;;;;21.92;12.68;;;7.70;98.00;;;;;;2080938;28;20704;-65
2021/10/08 01:22:14;;;;;;;20.87;13.13;;;7.80;98.10;;;;;;2081201;28;20169;-64
2021/10/08 01:23:14;;;;;;;19.95;12.07;;;7.80;98.00;;;;;;2081842;28;20644;-64
2021/10/08 01:24:15;;;;;;;22.80;13.00;;;7.80;98.00;;;;;;2081955;28;20174;-65
2021/10/08 01:25:16;;;;;;;20.30;12.37;;;7.90;97.80;;;;;;2081693;28;20640;-65
2021/10/08 01:26:17;;;;;;;24.67;13.50;;;7.90;97.60;;;;;;2081741;28;20323;-65
2021/10/08 01:27:17;;;;;;;21.80;13.43;;;7.90;97.50;;;;;;2081747;28;20229;-65
2021/10/08 01:28:19;;;;;;;16.20;11.17;;;8.00;97.50;;;;;;2081861;28;20179;-64
2021/10/08 01:29:19;;;;;;;21.67;13.43;;;7.90;97.00;;;;;;2081769;28;20531;-65
2021/10/08 01:30:23;;;;;;;19.93;12.70;;;7.80;97.60;;;;;;2081707;28;20248;-65
2021/10/08 01:31:23;;;;;;;18.98;12.75;;;7.70;97.90;;;;;;2080779;28;20176;-66
2021/10/08 01:32:27;;;;;;;21.33;12.90;;;7.60;98.10;;;;;;2081201;28;20524;-65
2021/10/08 01:33:27;;;;;;;20.25;12.68;;;7.50;98.60;;;;;;2081568;28;20244;-65
2021/10/08 01:34:28;;;;;;;22.30;12.93;;;7.60;98.70;;;;;;2081632;28;20267;-65
2021/10/08 01:35:29;;;;;;;18.17;12.87;;;7.60;98.60;;;;;;2081579;28;20188;-65
2021/10/08 01:36:30;;;;;;;20.40;12.77;;;7.60;98.40;;;;;;2081733;28;20183;-65
2021/10/08 01:37:31;;;;;;;20.17;13.07;;;7.60;98.30;;;;;;2081536;28;20260;-65
2021/10/08 01:38:32;;;;;;;19.13;12.63;;;7.60;98.30;;;;;;2077098;28;20535;-66
2021/10/08 01:39:32;;;;;;;22.63;13.60;;;7.60;98.30;;;;;;2073467;28;20182;-66
2021/10/08 01:40:35;;;;;;;20.37;13.10;;;7.70;98.20;;;;;;2073635;28;20195;-65
2021/10/08 01:41:35;;;;;;;19.35;13.65;;;7.70;98.00;;;;;;2073115;28;20204;-65
2021/10/08 01:42:36;;;;;;;17.40;12.10;;;7.70;98.00;;;;;;2073452;28;20210;-66
2021/10/08 01:43:37;;;;;;;21.73;13.20;;;7.70;98.10;;;;;;2073358;28;20200;-66
2021/10/08 01:44:38;;;;;;;19.30;12.67;;;7.70;97.90;;;;;;2073401;28;20205;-65
2021/10/08 01:45:39;;;;;;;20.67;13.20;;;7.70;98.00;;;;;;2073457;28;20257;-66
2021/10/08 01:46:40;;;;;;;17.50;12.83;;;7.70;98.50;;;;;;2073430;28;20590;-67
2021/10/08 01:47:41;;;;;;;15.90;11.60;;;7.70;97.80;;;;;;2073515;28;20183;-65
2021/10/08 01:48:42;;;;;;;20.88;13.43;;;7.70;97.90;;;;;;2073453;28;20181;-64
2021/10/08 01:49:42;;;;;;;20.27;13.63;;;7.70;97.90;;;;;;2073387;28;20203;-64
2021/10/08 01:50:43;;;;;;;18.03;12.80;;;7.70;97.80;;;;;;2073289;28;20182;-64
2021/10/08 01:51:44;;;;;;;18.60;11.73;;;7.70;97.80;;;;;;2073330;28;20248;-65
2021/10/08 01:52:44;;;;;;;21.47;12.47;;;7.70;97.70;;;;;;2073580;28;20181;-65
2021/10/08 01:53:45;;;;;;;20.37;13.53;;;7.70;97.80;;;;;;2073569;28;20517;-66
2021/10/08 01:54:46;;;;;;;18.60;12.77;;;7.60;97.90;;;;;;2073266;28;20261;-65
2021/10/08 01:55:47;;;;;;;25.87;13.23;;;7.60;97.90;;;;;;2073374;28;20637;-64
2021/10/08 01:56:47;;;;;;;21.90;13.00;;;7.50;97.90;;;;;;2073236;28;20420;-65
2021/10/08 01:57:48;;;;;;;22.00;13.57;;;7.60;97.80;;;;;;2080893;28;20177;-65
2021/10/08 01:58:49;;;;;;;19.73;13.13;;;7.60;97.80;;;;;;2080847;28;20699;-65
2021/10/08 01:59:49;;;;;;;18.40;12.53;;;7.60;97.80;;;;;;2073258;28;20190;-64
2021/10/08 02:00:50;;;;;;;18.23;12.70;;;7.60;97.80;;;;;;2073513;28;20200;-66
2021/10/08 02:01:51;;;;;;;21.30;11.77;;;7.60;97.60;;;;;;2073212;28;20268;-65
2021/10/08 02:02:51;;;;;;;20.03;12.60;;;7.70;97.40;;;;;;2073340;28;20177;-65
2021/10/08 02:03:52;;;;;;;20.43;12.83;;;7.50;97.80;;;;;;2073451;28;20212;-66
2021/10/08 02:04:53;;;;;;;16.73;11.57;;;7.50;98.60;;;;;;2073155;28;20225;-65
2021/10/08 02:05:53;;;;;;;18.83;12.70;;;7.60;98.10;;;;;;2073119;28;20178;-65
2021/10/08 02:06:54;;;;;;;19.57;12.50;;;7.60;97.90;;;;;;2073404;28;20183;-64
2021/10/08 02:07:55;;;;;;;17.17;11.90;;;7.60;97.70;;;;;;2073408;28;20305;-64
2021/10/08 02:08:56;;;;;;;21.77;13.03;;;7.60;97.40;;;;;;2073379;28;20202;-64
2021/10/08 02:09:56;;;;;;;20.10;13.10;;;7.60;97.50;;;;;;2073439;28;20565;-65
2021/10/08 02:10:57;;;;;;;22.53;13.43;;;7.50;97.60;;;;;;2073064;28;20184;-64
2021/10/08 02:11:58;;;;;;;18.67;12.57;;;7.50;97.60;;;;;;2073113;28;20670;-65
2021/10/08 02:12:58;;;;;;;18.60;12.67;;;7.50;97.50;;;;;;2073365;28;20259;-66
2021/10/08 02:14:00;;;;;;;18.87;11.80;;;7.50;97.30;;;;;;2073340;28;20171;-66
2021/10/08 02:15:00;;;;;;;20.35;12.45;;;7.50;97.10;;;;;;2073058;28;20564;-64
2021/10/08 02:16:02;;;;;;;18.97;13.27;;;7.40;97.20;;;;;;2073206;28;20184;-65
2021/10/08 02:17:04;;;;;;;17.27;12.75;;;7.40;97.20;;;;;;2073346;28;20188;-66
2021/10/08 02:18:04;;;;;;;19.02;13.25;;;7.30;97.60;;;;;;2073487;28;20192;-64
2021/10/08 02:19:06;;;;;;;20.93;14.17;;;7.20;98.00;;;;;;2073306;28;20170;-66
2021/10/08 02:20:07;;;;;;;19.88;12.55;;;7.10;98.10;;;;;;2073313;28;20190;-64
2021/10/08 02:21:07;;;;;;;17.67;13.20;;;7.10;98.40;;;;;;2072081;28;20190;-66
2021/10/08 02:22:08;;;;;;;19.20;13.60;;;7.00;98.50;;;;;;2076510;28;20185;-66
2021/10/08 02:23:10;;;;;;;19.90;12.50;;;7.00;98.80;;;;;;2081281;28;20693;-65
2021/10/08 02:24:10;;;;;;;22.58;13.57;;;7.00;98.70;;;;;;2081237;28;20199;-64
2021/10/08 02:25:11;;;;;;;19.07;13.03;;;6.90;98.70;;;;;;2081362;28;20181;-66
2021/10/08 02:26:13;;;;;;;26.30;13.03;;;6.90;98.60;;;;;;2081372;28;20292;-65
2021/10/08 02:27:13;;;;;;;20.23;13.90;;;6.90;98.50;;;;;;2081458;28;20268;-65
2021/10/08 02:28:14;;;;;;;18.73;13.07;;;6.90;98.40;;;;;;2081541;28;20177;-65
2021/10/08 02:29:15;;;;;;;21.07;12.93;;;6.90;98.40;;;;;;2081598;28;20259;-67
2021/10/08 02:30:16;;;;;;;21.27;14.07;;;6.90;99.10;;;;;;2081428;28;20204;-64
2021/10/08 02:31:16;;;;;;;19.90;12.67;;;6.80;99.00;;;;;;2081106;28;20188;-65
2021/10/08 02:32:17;;;;;;;19.67;12.50;;;6.80;98.90;;;;;;2080718;28;20188;-65
2021/10/08 02:33:18;;;;;;;20.70;12.63;;;6.80;99.00;;;;;;2081631;28;20182;-65
2021/10/08 02:34:19;;;;;;;21.50;12.67;;;6.80;98.90;;;;;;2081553;28;20694;-68
2021/10/08 02:35:20;;;;;;;22.58;14.52;;;6.80;98.80;;;;;;2081651;28;20180;-64
2021/10/08 02:36:20;;;;;;;20.20;13.67;;;6.70;98.90;;;;;;2081573;28;20216;-66
2021/10/08 02:37:21;;;;;;;18.50;12.27;;;6.70;98.80;;;;;;2081513;28;20213;-67
2021/10/08 02:38:22;;;;;;;22.37;13.67;;;6.70;99.50;;;;;;2081319;28;20204;-64
2021/10/08 02:39:23;;;;;;;20.73;12.80;;;6.70;99.20;;;;;;2081543;28;20173;-64
2021/10/08 02:40:24;;;;;;;24.83;12.98;;;6.70;99.30;;;;;;2080785;28;20185;-64
2021/10/08 02:41:24;;;;;;;20.93;13.57;;;6.60;99.30;;;;;;2080800;28;20181;-64
2021/10/08 02:42:25;;;;;;;21.67;13.73;;;6.60;99.10;;;;;;2081541;28;20288;-65
2021/10/08 02:43:27;;;;;;;18.77;12.43;;;6.60;99.00;;;;;;2081491;28;20208;-65
2021/10/08 02:44:28;;;;;;;19.67;12.68;;;6.60;98.90;;;;;;2081401;28;20215;-64
2021/10/08 02:45:28;;;;;;;20.60;12.83;;;6.60;98.70;;;;;;2081557;28;20660;-64
2021/10/08 02:46:29;;;;;;;17.33;11.63;;;6.60;98.50;;;;;;2081438;28;20213;-64
2021/10/08 02:47:30;;;;;;;19.27;11.67;;;6.60;98.40;;;;;;2081496;28;20181;-65
2021/10/08 02:48:31;;;;;;;21.20;12.37;;;6.60;98.20;;;;;;2081331;28;20711;-65
2021/10/08 02:49:31;;;;;;;20.20;12.93;;;6.60;98.20;;;;;;2081512;28;20626;-64
2021/10/08 02:50:32;;;;;;;19.40;12.67;;;6.60;98.10;;;;;;2081314;28;20212;-66
2021/10/08 02:51:33;;;;;;;17.73;12.17;;;6.50;98.10;;;;;;2081528;28;20252;-64
2021/10/08 02:52:34;;;;;;;23.60;13.35;;;6.40;98.10;;;;;;2081857;28;20177;-65
2021/10/08 02:53:35;;;;;;;20.33;11.93;;;6.40;98.20;;;;;;2081845;28;20191;-65
2021/10/08 02:54:36;;;;;;;18.83;12.17;;;6.40;98.30;;;;;;2081534;28;20610;-66
2021/10/08 02:55:37;;;;;;;19.37;11.23;;;6.40;98.40;;;;;;2081722;28;20174;-65
2021/10/08 02:56:38;;;;;;;18.70;11.82;;;6.30;98.30;;;;;;2081749;28;20203;-66
2021/10/08 02:57:39;;;;;;;20.60;12.43;;;6.30;98.30;;;;;;2081914;28;20228;-65
2021/10/08 02:58:40;;;;;;;20.17;12.40;;;6.30;98.40;;;;;;2081869;28;20177;-69
2021/10/08 02:59:40;;;;;;;22.00;13.37;;;6.20;98.60;;;;;;2081719;28;20219;-64
2021/10/08 03:00:41;;;;;;;24.20;14.43;;;6.20;98.90;;;;;;2081670;28;20265;-64
2021/10/08 03:01:42;;;;;;;20.67;13.45;;;6.20;98.90;;;;;;2080752;28;20243;-65
2021/10/08 03:02:43;;;;;;;22.33;13.07;;;6.20;99.00;;;;;;2081212;28;20232;-65
2021/10/08 03:03:44;;;;;;;17.80;11.70;;;6.10;98.90;;;;;;2081962;28;20231;-65
2021/10/08 03:04:46;;;;;;;18.63;11.80;;;6.10;98.80;;;;;;2081657;28;20196;-65
2021/10/08 03:05:46;;;;;;;21.02;12.55;;;6.10;98.80;;;;;;2081656;28;20180;-65
2021/10/08 03:06:47;;;;;;;18.97;12.07;;;6.10;98.80;;;;;;2081718;28;20668;-64
2021/10/08 03:07:48;;;;;;;20.33;12.03;;;6.10;98.80;;;;;;2081366;28;20204;-66
2021/10/08 03:08:49;;;;;;;19.40;11.80;;;6.00;98.70;;;;;;2081464;28;20416;-65
2021/10/08 03:09:50;;;;;;;21.67;11.52;;;6.00;98.60;;;;;;2081244;28;20177;-66
2021/10/08 03:10:51;;;;;;;21.73;12.90;;;6.00;98.60;;;;;;2081251;28;20188;-64
2021/10/08 03:11:51;;;;;;;18.77;11.73;;;6.00;98.70;;;;;;2081197;28;20173;-65
2021/10/08 03:12:52;;;;;;;18.47;11.57;;;6.00;98.80;;;;;;2081456;28;20656;-66
2021/10/08 03:13:53;;;;;;;17.57;10.20;;;6.00;98.70;;;;;;2081544;28;20521;-65
2021/10/08 03:14:53;;;;;;;17.60;10.70;;;6.00;98.80;;;;;;2081308;28;20197;-64
2021/10/08 03:15:54;;;;;;;20.77;12.97;;;6.00;98.70;;;;;;2081325;28;20174;-65
2021/10/08 03:16:55;;;;;;;20.80;12.20;;;5.90;98.70;;;;;;2081459;28;20177;-64
2021/10/08 03:17:56;;;;;;;21.80;12.50;;;5.90;98.80;;;;;;2081176;28;20226;-64
2021/10/08 03:18:56;;;;;;;24.50;11.83;;;5.90;98.90;;;;;;2081183;28;20699;-64
2021/10/08 03:19:57;;;;;;;22.97;12.13;;;5.90;98.90;;;;;;2081184;28;20272;-64
2021/10/08 03:20:58;;;;;;;20.47;12.23;;;5.90;98.80;;;;;;2081215;28;20213;-65
2021/10/08 03:21:59;;;;;;;16.57;11.67;;;5.90;98.60;;;;;;2080950;28;20637;-65
2021/10/08 03:22:59;;;;;;;20.07;11.67;;;5.90;98.60;;;;;;2081107;28;20184;-64
2021/10/08 03:24:00;;;;;;;17.77;11.23;;;5.90;98.60;;;;;;2081153;28;20165;-64
2021/10/08 03:25:01;;;;;;;22.00;12.80;;;5.90;98.50;;;;;;2081070;28;20200;-65
2021/10/08 03:26:02;;;;;;;20.17;12.35;;;5.90;98.60;;;;;;2081053;28;20212;-65
2021/10/08 03:27:03;;;;;;;23.47;12.53;;;5.80;98.50;;;;;;2081083;28;20227;-64
2021/10/08 03:28:04;;;;;;;18.87;11.93;;;5.80;98.50;;;;;;2081077;28;20215;-64
2021/10/08 03:29:05;;;;;;;21.03;11.50;;;5.80;98.50;;;;;;2081138;28;20227;-64
2021/10/08 03:30:10;;;;;;;23.23;13.50;;;5.80;98.40;;;;;;2081070;28;20169;-64
2021/10/08 03:31:12;;;;;;;20.80;12.07;;;5.80;98.30;;;;;;2080271;28;20162;-66
2021/10/08 03:32:12;;;;;;;22.55;13.18;;;5.80;98.40;;;;;;2080379;28;20621;-64
2021/10/08 03:33:13;;;;;;;16.93;11.53;;;5.80;98.50;;;;;;2076286;28;20174;-64
2021/10/08 03:34:14;;;;;;;24.23;13.57;;;5.80;98.60;;;;;;2072771;28;20626;-64
2021/10/08 03:35:15;;;;;;;23.40;12.80;;;5.70;98.80;;;;;;2073025;28;20178;-64
2021/10/08 03:36:30;;;;;;;20.63;13.18;;;5.70;99.00;;;;;;2072870;28;20178;-64
2021/10/08 03:37:40;;;;;;;23.70;13.80;;;5.70;98.90;;;;;;2072864;28;20169;-65
2021/10/08 03:38:40;;;;;;;24.30;12.23;;;5.70;99.00;;;;;;2072823;28;20189;-64
2021/10/08 03:39:44;;;;;;;23.90;12.63;;;5.70;99.00;;;;;;2072893;28;20192;-65
2021/10/08 03:41:20;;;;;;;23.95;13.52;;;5.70;99.00;;;;;;2072834;28;20181;-66
2021/10/08 03:42:17;;;;;;;23.42;13.35;;;5.70;99.00;;;;;;2072519;28;20192;-66
2021/10/08 03:43:18;;;;;;;23.45;12.38;;;5.70;99.50;;;;;;2072414;28;20189;-64
2021/10/08 03:44:20;;;;;;;28.47;15.53;;;5.80;99.90;;;;;;2073737;28;20197;-64
2021/10/08 03:45:22;;;;;;;23.52;14.45;;;5.80;99.90;;;;;;2074368;28;20376;-64
2021/10/08 03:46:26;;;;;;;26.15;15.43;;;5.80;99.90;;;;;;2074235;28;20607;-64
2021/10/08 03:47:35;;;;;;;30.98;15.27;;;5.90;99.90;;;;;;2074279;28;20185;-66
2021/10/08 03:49:59;;;;;;;26.17;14.48;;;6.00;99.90;;;;;;2074096;28;20192;-65
2021/10/08 03:51:02;;;;;;;24.97;14.97;;;6.10;99.90;;;;;;2074009;28;20292;-67
2021/10/08 03:52:03;;;;;;;28.15;14.38;;;6.20;99.80;;;;;;2074216;28;20735;-66
2021/10/08 03:53:05;;;;;;;26.17;14.40;;;6.20;99.60;;;;;;2074321;28;20190;-65
2021/10/08 03:54:06;;;;;;;24.80;15.35;;;6.20;99.50;;;;;;2074122;28;20174;-65
2021/10/08 03:55:07;;;;;;;26.05;15.60;;;6.30;99.40;;;;;;2074309;28;20178;-64
2021/10/08 03:56:08;;;;;;;22.70;13.53;;;6.30;99.30;;;;;;2074387;28;20193;-65
2021/10/08 03:57:08;;;;;;;29.20;14.23;;;6.30;99.30;;;;;;2074157;28;20182;-65
2021/10/08 03:58:09;;;;;;;22.03;14.23;;;6.30;99.30;;;;;;2074379;28;20178;-66
2021/10/08 03:59:10;;;;;;;23.00;15.07;;;6.30;99.30;;;;;;2074324;28;20560;-62
2021/10/08 04:00:12;;;;;;;27.05;15.60;;;6.30;99.20;;;;;;2074451;28;20217;-62
2021/10/08 04:01:12;;;;;;;29.15;17.73;;;6.40;99.20;;;;;;2074035;28;20181;-65
2021/10/08 04:02:13;;;;;;;28.50;16.70;;;6.40;99.20;;;;;;2074434;28;20216;-65
2021/10/08 04:03:14;;;;;;;31.60;18.03;;;6.40;99.30;;;;;;2074409;28;20220;-65
2021/10/08 04:04:15;;;;;;;27.70;17.27;;;6.40;99.40;;;;;;2073607;28;20196;-65
2021/10/08 04:05:16;;;;;;;30.10;17.67;;;6.40;99.40;;;;;;2073699;28;20231;-66
2021/10/08 04:06:17;;;;;;;35.83;19.20;;;6.40;99.40;;;;;;2074193;28;20546;-66
2021/10/08 04:07:18;;;;;;;28.67;15.77;;;6.40;99.30;;;;;;2074333;28;20178;-65
2021/10/08 04:08:19;;;;;;;26.03;16.87;;;6.50;99.30;;;;;;2074035;28;20182;-65
2021/10/08 04:09:19;;;;;;;28.20;16.03;;;6.50;99.20;;;;;;2074226;28;20180;-64
2021/10/08 04:10:20;;;;;;;21.90;14.93;;;6.40;99.10;;;;;;2074008;28;20184;-65
2021/10/08 04:11:21;;;;;;;23.83;14.33;;;6.40;99.10;;;;;;2073929;28;20181;-64
2021/10/08 04:12:21;;;;;;;28.40;15.73;;;6.40;99.00;;;;;;2074105;28;20212;-65
2021/10/08 04:13:22;;;;;;;27.03;15.10;;;6.50;98.80;;;;;;2074146;28;20257;-65
2021/10/08 04:14:23;;;;;;;27.07;15.50;;;6.40;98.70;;;;;;2074051;28;20169;-63
2021/10/08 04:15:24;;;;;;;21.80;14.43;;;6.40;98.60;;;;;;2073963;28;20206;-66
2021/10/08 04:16:24;;;;;;;22.70;13.87;;;6.40;98.50;;;;;;2074080;28;20174;-66
2021/10/08 04:17:25;;;;;;;22.73;14.67;;;6.40;98.40;;;;;;2073480;28;20606;-64
2021/10/08 04:18:26;;;;;;;20.07;13.57;;;6.40;98.50;;;;;;2073606;28;20533;-65
2021/10/08 04:19:27;;;;;;;21.23;13.50;;;6.40;98.50;;;;;;2074189;28;20206;-65
2021/10/08 04:20:27;;;;;;;18.33;11.97;;;6.30;98.50;;;;;;2074146;28;20192;-64
2021/10/08 04:21:28;;;;;;;27.93;14.97;;;6.20;98.60;;;;;;2073951;28;20236;-65
2021/10/08 04:22:29;;;;;;;25.13;14.53;;;6.20;98.70;;;;;;2073979;28;20273;-65
2021/10/08 04:23:29;;;;;;;22.53;14.87;;;6.20;98.80;;;;;;2074130;28;20184;-64
2021/10/08 04:24:30;;;;;;;23.27;14.67;;;6.20;98.90;;;;;;2074116;28;20202;-66
2021/10/08 04:25:31;;;;;;;22.13;14.00;;;6.20;99.00;;;;;;2074174;28;20185;-65
2021/10/08 04:26:33;;;;;;;26.10;14.02;;;6.20;98.90;;;;;;2073915;28;20292;-65
2021/10/08 04:27:33;;;;;;;20.92;14.25;;;6.20;98.90;;;;;;2073617;28;20189;-66
2021/10/08 04:28:34;;;;;;;22.50;13.10;;;6.10;98.80;;;;;;2073494;28;20186;-66
2021/10/08 04:29:35;;;;;;;24.67;13.83;;;6.20;98.80;;;;;;2074146;28;20181;-66
2021/10/08 04:30:36;;;;;;;20.83;14.17;;;6.10;98.80;;;;;;2074072;28;20624;-65
2021/10/08 04:31:36;;;;;;;24.10;13.80;;;6.10;99.00;;;;;;2073865;28;20204;-65
2021/10/08 04:32:37;;;;;;;27.03;13.93;;;6.00;99.00;;;;;;2073961;28;20189;-64
2021/10/08 04:33:38;;;;;;;19.53;12.60;;;6.00;99.00;;;;;;2074149;28;20181;-65
2021/10/08 04:34:38;;;;;;;19.13;12.47;;;6.00;99.10;;;;;;2073842;28;20198;-65
2021/10/08 04:35:39;;;;;;;25.20;13.97;;;6.00;99.10;;;;;;2073970;28;20227;-65
2021/10/08 04:36:40;;;;;;;25.07;15.23;;;6.10;99.10;;;;;;2073822;28;20213;-67
2021/10/08 04:37:41;;;;;;;26.23;14.50;;;6.10;99.10;;;;;;2073934;28;20456;-65
2021/10/08 04:38:42;;;;;;;26.47;13.60;;;6.10;99.20;;;;;;2073899;28;20588;-64
2021/10/08 04:39:42;;;;;;;33.67;15.50;;;6.10;99.30;;;;;;2073915;28;20255;-66
2021/10/08 04:40:44;;;;;;;24.17;14.50;;;6.10;99.40;;;;;;2073828;28;20220;-65
2021/10/08 04:41:44;;;;;;;26.13;16.67;;;6.20;99.80;;;;;;2073146;28;20177;-64
2021/10/08 04:42:45;;;;;;;25.33;15.33;;;6.10;99.90;;;;;;2073343;28;20314;-65
2021/10/08 04:43:46;;;;;;;28.97;16.07;;;6.20;99.90;;;;;;2073889;28;20389;-65
2021/10/08 04:44:47;;;;;;;24.90;14.03;;;6.20;99.90;;;;;;2073884;28;20288;-66
2021/10/08 04:45:47;;;;;;;26.23;15.80;;;6.30;99.90;;;;;;2073787;28;20268;-65
2021/10/08 04:46:48;;;;;;;25.03;14.10;;;6.20;99.90;;;;;;2074037;28;20213;-64
2021/10/08 04:47:49;;;;;;;31.33;16.93;;;6.30;99.90;;;;;;2073706;28;20178;-65
2021/10/08 04:48:50;;;;;;;26.80;15.03;;;6.30;99.90;;;;;;2073970;28;20205;-65
2021/10/08 04:49:51;;;;;;;29.92;15.98;;;6.40;99.90;;;;;;2074450;28;20178;-66
2021/10/08 04:50:51;;;;;;;31.83;17.93;;;6.40;99.90;;;;;;2073706;28;20197;-65
2021/10/08 04:51:52;;;;;;;33.20;18.13;;;6.50;99.90;;;;;;2073581;28;20179;-64
2021/10/08 04:52:53;;;;;;;26.90;15.07;;;6.50;99.90;;;;;;2073849;28;20673;-65
2021/10/08 04:53:54;;;;;;;34.35;19.17;;;6.60;99.80;;;;;;2073246;28;20185;-65
2021/10/08 04:54:55;;;;;;;29.97;17.57;;;6.60;99.80;;;;;;2072593;28;20289;-67
2021/10/08 04:55:56;;;;;;;27.70;15.70;;;6.70;99.80;;;;;;2073780;28;20291;-66
2021/10/08 04:56:56;;;;;;;31.48;17.67;;;6.70;99.80;;;;;;2073968;28;20178;-66
2021/10/08 04:57:57;;;;;;;32.37;17.50;;;6.70;99.70;;;;;;2073795;28;20209;-66
2021/10/08 04:58:58;;;;;;;32.60;17.87;;;6.80;99.80;;;;;;2073689;28;20659;-66
2021/10/08 04:59:58;;;;;;;36.80;18.97;;;6.80;99.70;;;;;;2073814;28;20542;-65
2021/10/08 05:00:59;;;;;;;29.53;17.77;;;6.80;99.60;;;;;;2073676;28;20295;-66
2021/10/08 05:02:00;;;;;;;30.27;18.37;;;6.80;99.50;;;;;;2073611;28;20227;-66
2021/10/08 05:03:07;;;;;;;39.65;19.40;;;6.90;99.50;;;;;;2073155;28;20170;-66
2021/10/08 05:04:08;;;;;;;33.53;18.52;;;6.90;99.40;;;;;;2073027;28;20576;-66
2021/10/08 05:05:09;;;;;;;32.50;18.67;;;7.00;99.30;;;;;;2073920;28;20205;-65
2021/10/08 05:06:09;;;;;;;35.27;18.50;;;7.00;99.30;;;;;;2073613;28;20593;-66
2021/10/08 05:07:10;;;;;;;31.87;18.73;;;7.00;99.40;;;;;;2073728;28;20182;-65
2021/10/08 05:08:11;;;;;;;35.73;19.57;;;7.10;99.50;;;;;;2073611;28;20179;-67
2021/10/08 05:09:12;;;;;;;31.27;18.43;;;7.10;99.40;;;;;;2073565;28;20239;-66
2021/10/08 05:10:12;;;;;;;36.33;18.60;;;7.10;99.40;;;;;;2073579;28;20192;-65
2021/10/08 05:11:13;;;;;;;33.37;18.63;;;7.20;99.40;;;;;;2073510;28;20185;-67
2021/10/08 05:12:14;;;;;;;31.00;17.33;;;7.10;99.20;;;;;;2077371;28;20251;-65
2021/10/08 05:13:15;;;;;;;29.07;17.67;;;7.20;99.30;;;;;;2081779;28;20185;-65
2021/10/08 05:14:16;;;;;;;34.42;19.20;;;7.20;99.40;;;;;;2081735;28;20267;-66
2021/10/08 05:15:17;;;;;;;31.65;17.90;;;7.20;99.60;;;;;;2081287;28;20196;-65